EDJA

Memmingen Allgau Airport

Memmingen, Germany
METAR EDJA 191150Z VRB01KT 9999 FEW044 BKN052 05/00 Q1017
Observed Flight Rules
Dec-19 @ 11:50 UTC (17 minutes ago) Visual Flight Rules
Wind Visibility Clouds
Variable at 1 knots 10,000+ meters
  • Few at 4,400' AGL
  • Broken at 5,200' AGL
Temperatures Readings
Current 5°C / 41°F
Dewpoint 0°C / 32°F
Humidity 70%
Altimeter 30.03" Hg
Pressure 1017 hPa
Elevation 633
METAR EDJA 191150Z VRB01KT 9999 FEW044 BKN052 05/00 Q1017
Observed Flight Rules
Dec-19 @ 11:50 UTC
(17 minutes ago)
VFR
Wind Visibility
Variable at 1 knots 10,000+ meters
Clouds
  • Few at 4,400' AGL
  • Broken at 5,200' AGL
Temperature Dewpoint
5°C / 41°F 0°C / 32°F
Humidity Altimeter Pressure
70% 30.03" Hg 1017 hPa